createdAt,value
2023-03-22T00:04:41.847Z,14.30
2023-03-22T00:10:15.940Z,19.42
2023-03-22T00:15:21.642Z,13.23
2023-03-22T00:20:31.078Z,14.13
2023-03-22T00:25:39.086Z,14.90
2023-03-22T00:30:57.841Z,15.13
2023-03-22T00:36:16.753Z,19.38
2023-03-22T01:06:17.060Z,13.60
2023-03-22T02:12:14.186Z,10.93
2023-03-22T02:24:47.584Z,12.25
2023-03-22T02:36:17.573Z,10.68
2023-03-22T03:10:18.621Z,13.15
2023-03-22T03:21:28.350Z,14.10
2023-03-22T03:27:17.702Z,12.00
2023-03-22T03:33:14.433Z,12.30
2023-03-22T03:38:42.461Z,14.10
2023-03-22T03:43:52.173Z,13.20
2023-03-22T04:01:02.826Z,11.75
2023-03-22T06:25:27.846Z,15.95
2023-03-22T06:31:18.810Z,17.83
2023-03-22T08:45:34.217Z,15.23
2023-03-22T08:56:04.750Z,14.18
2023-03-22T09:01:10.781Z,13.93
2023-03-22T09:06:17.537Z,13.13
2023-03-22T09:29:30.980Z,13.02
2023-03-22T09:35:23.688Z,12.45
2023-03-22T10:04:11.336Z,10.18
2023-03-22T10:09:27.539Z,10.90
2023-03-22T10:14:36.252Z,9.38
2023-03-22T10:19:53.236Z,11.40
2023-03-22T10:24:58.926Z,12.40
2023-03-22T10:30:08.456Z,11.70
2023-03-22T10:35:20.183Z,11.43
2023-03-22T10:40:29.402Z,10.63
2023-03-22T10:45:37.841Z,10.20
2023-03-22T10:50:48.099Z,10.57
2023-03-22T10:55:53.659Z,13.02
2023-03-22T11:01:02.041Z,12.82
2023-03-22T11:06:14.115Z,10.65
2023-03-22T11:11:27.571Z,12.85
2023-03-22T11:16:34.656Z,9.82
2023-03-22T11:21:46.047Z,10.10
2023-03-22T11:27:06.827Z,11.38
2023-03-22T11:32:25.073Z,9.45
2023-03-22T11:37:33.351Z,9.23
2023-03-22T11:42:39.246Z,11.13
2023-03-22T11:47:45.726Z,11.15
2023-03-22T11:52:54.523Z,12.02
2023-03-22T11:57:59.855Z,9.75
2023-03-22T12:03:10.297Z,10.38
2023-03-22T12:08:24.833Z,8.65
2023-03-22T12:13:34.475Z,8.35
2023-03-22T12:18:44.858Z,9.18
2023-03-22T12:23:52.793Z,10.70
2023-03-22T12:29:01.301Z,10.05
2023-03-22T12:34:10.168Z,8.77
2023-03-22T12:39:27.203Z,8.80
2023-03-22T12:44:36.064Z,7.60
2023-03-22T12:49:44.938Z,7.47
2023-03-22T12:54:54.393Z,5.85
2023-03-22T13:00:02.688Z,8.77
2023-03-22T13:05:10.818Z,7.57
2023-03-22T13:10:50.318Z,7.00
2023-03-22T13:16:05.303Z,6.82
2023-03-22T13:21:16.613Z,7.75
2023-03-22T13:26:37.338Z,8.65
2023-03-22T13:31:47.989Z,8.70
2023-03-22T13:36:56.518Z,8.23
2023-03-22T13:42:11.942Z,7.78
2023-03-22T13:47:35.960Z,6.80
2023-03-22T13:52:44.769Z,10.10
2023-03-22T13:58:02.957Z,7.97
2023-03-22T14:03:21.124Z,8.38
2023-03-22T14:08:30.873Z,7.50
2023-03-22T14:13:43.629Z,7.82
2023-03-22T14:18:52.145Z,7.68
2023-03-22T14:55:01.576Z,6.88
2023-03-22T15:00:38.035Z,6.10
2023-03-22T15:05:47.308Z,5.65
2023-03-22T15:10:55.010Z,6.05
2023-03-22T15:16:05.397Z,4.88
2023-03-22T15:21:15.029Z,6.88
2023-03-22T15:26:23.360Z,5.22
2023-03-22T15:31:34.511Z,4.88
2023-03-22T15:36:41.134Z,4.70
2023-03-22T15:41:50.521Z,5.25
2023-03-22T15:47:03.100Z,4.45
2023-03-22T15:52:14.408Z,7.35
2023-03-22T15:57:24.501Z,6.50
2023-03-22T16:02:35.599Z,5.32
2023-03-22T16:07:42.673Z,6.03
2023-03-22T16:12:48.727Z,5.78
2023-03-22T16:17:57.633Z,4.25
2023-03-22T16:23:05.058Z,7.00
2023-03-22T16:28:11.720Z,5.32
2023-03-22T16:33:21.619Z,8.57
2023-03-22T16:38:29.144Z,13.48
2023-03-22T16:43:35.157Z,12.98
2023-03-22T16:48:44.108Z,11.45
2023-03-22T16:53:50.246Z,10.88
2023-03-22T16:58:56.820Z,6.22
2023-03-22T17:04:06.542Z,13.85
2023-03-22T17:09:12.850Z,16.02
2023-03-22T17:14:18.774Z,10.48
2023-03-22T17:19:28.771Z,167.68
2023-03-22T17:24:34.963Z,117.22
2023-03-22T17:29:42.119Z,135.68
2023-03-22T17:34:56.015Z,67.65
2023-03-22T17:45:28.417Z,227.48
2023-03-22T17:50:37.397Z,660.78
2023-03-22T18:00:56.577Z,673.63
2023-03-22T18:06:07.968Z,60.05
2023-03-22T18:11:17.989Z,54.53
2023-03-22T18:16:24.362Z,402.60
2023-03-22T18:22:03.322Z,407.48
2023-03-22T18:33:33.521Z,257.48
2023-03-22T18:39:34.118Z,161.43
2023-03-22T19:00:58.437Z,86.22
2023-03-22T19:23:51.363Z,77.30
2023-03-22T19:36:18.865Z,49.67
2023-03-22T19:47:58.243Z,45.60
2023-03-22T19:59:40.172Z,39.78
2023-03-22T20:04:49.803Z,212.05
2023-03-22T20:10:16.929Z,143.13
2023-03-22T20:15:26.931Z,143.48
2023-03-22T20:20:38.654Z,115.50
2023-03-22T20:26:08.778Z,103.13
2023-03-22T20:32:03.982Z,74.47
2023-03-22T20:37:20.894Z,62.50
2023-03-22T20:43:05.990Z,62.53
2023-03-22T20:48:15.141Z,65.68
2023-03-22T20:53:23.782Z,52.33
2023-03-22T20:58:50.368Z,28.13
2023-03-22T21:04:01.945Z,30.92
2023-03-22T21:09:19.692Z,28.67
2023-03-22T21:14:41.908Z,23.50
2023-03-22T21:19:57.849Z,44.00
2023-03-22T21:25:04.733Z,41.58
2023-03-22T21:30:16.873Z,63.22
2023-03-22T21:35:40.083Z,75.32
2023-03-22T21:40:51.197Z,51.42
2023-03-22T21:46:27.352Z,42.03
2023-03-22T21:51:37.769Z,29.20
2023-03-22T21:56:54.351Z,31.23
2023-03-22T22:02:07.673Z,29.90
2023-03-22T22:07:31.574Z,26.30
2023-03-22T22:43:47.735Z,35.85
2023-03-22T22:49:06.376Z,33.15
2023-03-22T22:54:20.200Z,36.38
2023-03-22T23:05:05.953Z,38.47
2023-03-22T23:10:22.978Z,34.80
2023-03-22T23:26:57.630Z,39.03
2023-03-22T23:32:24.430Z,32.13
2023-03-22T23:42:49.344Z,27.65
2023-03-22T23:48:02.175Z,29.48
2023-03-22T23:53:10.736Z,29.58
2023-03-22T23:58:16.454Z,26.60
